Etusivu
METAR-TAF:

METAR-TAF

Lentoasemat :

Rønne, Tanska

Leveyspiiri: 55-04N, Pituuspiiri: 014-45E, korkeus merenpinnasta: 16 m

Tämänhetkinen sää

Tämä raportti tehtiin 5 minuuttia sitten, kello 19.50 UTC
Tuuli 21 kn etelästä/kaakosta
Lämpötila 2°C
Kosteus 87%
Ilmanpaine 1002 hPa
Näkyvyys: 9000 m

METAR: EKRN 031950Z AUTO 16021KT 9000 OVC017/// 02/M00 Q1002

Aika: 20:55 (19:55 UTC)

Sääennuste

Tämä raportti tehtiin 2 tuntia ja 27 minuuttia sitten, kello 17.28 UTC
Ennuste voimassa 03. päivästä klo 18 UTC - 03. päivään klo 23 UTC
Tuuli 15 kn etelästä/kaakosta
Näkyvyys 10 km tai enemmän
Hajonneita pilviä 1500 ft:n korkeudessa
Ajoittain
03. päivästä klo 18 UTC - 03. päivään klo 21 UTC
Tuuli 18 kn etelästä puuskistuen 28 kn:hen
Näkyvyys: 2000 m
Hajonneita pilviä 700 ft:n korkeudessa
heikkoa lumisadetta, sadetta

TAF: EKRN 031728Z 0318/0323 16015KT 9999 BKN015 TEMPO 0318/0321 17018G28KT 2000 -SNRA BKN007

Säähavainnot ja -ennusteet yli 4000 lentoasemalta (METAR- ja TAF-raportit).

Käytössä olevat sääasemat on merkitty karttaan keltaisilla ja punaisilla pisteillä.

Aseta hiiri pisteen päälle nähdäksesi sääaseman nimen.

Klikkaa sitten nähdäksesi säähavainnot ja -ennusteet.

Kartan vaihtaminen: klikkaa mustalla rastilla varustettuja vihreitä pisteitä, niin voit zoomata sisään; viivalla varustettua vihreää pistettä, niin voit zoomata ulos tai vihreitä nuolia, niin pääset viereisille kartoille.


METAR-TAF: